Terminal Aerodrome Forecast
Issued by NWS

Home | Current Version | Previous Version | Text Only | Print | Product List | Glossary On
Versions: 1 2 3 4 5 6 7 8 9 10 11 12 13 14 15 16 17 18
598
FTUS41 KPBZ 220520
TAFLBE
TAF
KLBE 220520Z 2206/2306 20005KT P6SM BKN250
     FM221800 23016G28KT P6SM VCTS BKN050CB
     FM222100 23016G27KT 6SM -SHRA VCTS OVC035CB
     FM230300 23008KT P6SM VCSH OVC025=

USA.gov is the U.S. government's official web portal to all federal, state and local government web resources and services.